sensor_id;sensor_type;location;lat;lon;timestamp;pressure;altitude;pressure_sealevel;temperature;humidity
45991;BME280;31721;41.740;-88.000;2023-07-20T00:00:12;98958.03;;;28.34;31.29
45991;BME280;31721;41.740;-88.000;2023-07-20T00:02:40;98963.51;;;28.34;31.11
45991;BME280;31721;41.740;-88.000;2023-07-20T00:05:08;98956.03;;;28.37;31.30
45991;BME280;31721;41.740;-88.000;2023-07-20T00:07:35;98944.56;;;28.26;31.18
45991;BME280;31721;41.740;-88.000;2023-07-20T00:10:04;98946.74;;;28.23;31.09
45991;BME280;31721;41.740;-88.000;2023-07-20T00:12:31;98954.34;;;28.15;31.34
45991;BME280;31721;41.740;-88.000;2023-07-20T00:14:59;98945.80;;;28.01;31.18
45991;BME280;31721;41.740;-88.000;2023-07-20T00:17:27;98934.05;;;28.02;31.11
45991;BME280;31721;41.740;-88.000;2023-07-20T00:19:54;98938.64;;;28.03;30.73
45991;BME280;31721;41.740;-88.000;2023-07-20T00:22:22;98943.10;;;27.95;30.95
45991;BME280;31721;41.740;-88.000;2023-07-20T00:24:50;98943.57;;;28.02;31.15
45991;BME280;31721;41.740;-88.000;2023-07-20T00:27:18;98939.05;;;27.88;31.39
45991;BME280;31721;41.740;-88.000;2023-07-20T00:29:46;98932.16;;;27.82;31.44
45991;BME280;31721;41.740;-88.000;2023-07-20T00:32:13;98930.60;;;27.78;31.92
45991;BME280;31721;41.740;-88.000;2023-07-20T00:34:41;98931.24;;;27.74;31.85
45991;BME280;31721;41.740;-88.000;2023-07-20T00:37:09;98927.04;;;27.68;32.09
45991;BME280;31721;41.740;-88.000;2023-07-20T00:39:37;98925.21;;;27.74;32.27
45991;BME280;31721;41.740;-88.000;2023-07-20T00:42:06;98932.56;;;27.65;32.59
45991;BME280;31721;41.740;-88.000;2023-07-20T00:44:34;98926.68;;;27.83;32.47
45991;BME280;31721;41.740;-88.000;2023-07-20T00:47:02;98930.74;;;27.76;32.46
45991;BME280;31721;41.740;-88.000;2023-07-20T00:49:30;98934.31;;;27.91;32.69
45991;BME280;31721;41.740;-88.000;2023-07-20T00:51:59;98935.04;;;27.70;32.60
45991;BME280;31721;41.740;-88.000;2023-07-20T00:54:28;98919.92;;;27.61;32.90
45991;BME280;31721;41.740;-88.000;2023-07-20T00:56:55;98914.36;;;27.58;33.13
45991;BME280;31721;41.740;-88.000;2023-07-20T00:59:25;98921.76;;;27.48;33.28
45991;BME280;31721;41.740;-88.000;2023-07-20T01:01:53;98920.04;;;27.41;33.73
45991;BME280;31721;41.740;-88.000;2023-07-20T01:04:21;98920.37;;;27.32;34.76
45991;BME280;31721;41.740;-88.000;2023-07-20T01:06:56;98921.85;;;27.19;35.37
45991;BME280;31721;41.740;-88.000;2023-07-20T01:09:31;98920.23;;;27.13;35.47
45991;BME280;31721;41.740;-88.000;2023-07-20T01:12:06;98919.83;;;27.08;35.93
45991;BME280;31721;41.740;-88.000;2023-07-20T01:14:35;98912.53;;;27.10;35.23
45991;BME280;31721;41.740;-88.000;2023-07-20T01:17:03;98914.83;;;26.91;35.26
45991;BME280;31721;41.740;-88.000;2023-07-20T01:19:31;98911.29;;;26.92;35.55
45991;BME280;31721;41.740;-88.000;2023-07-20T01:22:03;98906.39;;;26.87;35.34
45991;BME280;31721;41.740;-88.000;2023-07-20T01:24:57;98903.53;;;26.83;35.05
45991;BME280;31721;41.740;-88.000;2023-07-20T01:27:55;98885.83;;;26.79;35.22
45991;BME280;31721;41.740;-88.000;2023-07-20T01:30:43;98892.06;;;26.83;35.04
45991;BME280;31721;41.740;-88.000;2023-07-20T01:33:14;98896.45;;;26.68;34.90
45991;BME280;31721;41.740;-88.000;2023-07-20T01:35:45;98898.47;;;26.52;35.71
45991;BME280;31721;41.740;-88.000;2023-07-20T01:38:13;98899.46;;;26.47;35.55
45991;BME280;31721;41.740;-88.000;2023-07-20T01:40:41;98901.77;;;26.40;35.81
45991;BME280;31721;41.740;-88.000;2023-07-20T01:43:09;98899.90;;;26.34;35.84
45991;BME280;31721;41.740;-88.000;2023-07-20T01:45:37;98894.35;;;26.28;36.41
45991;BME280;31721;41.740;-88.000;2023-07-20T01:48:05;98900.29;;;26.21;36.39
45991;BME280;31721;41.740;-88.000;2023-07-20T01:50:34;98912.62;;;26.15;36.71
45991;BME280;31721;41.740;-88.000;2023-07-20T01:53:02;98918.96;;;26.04;36.71
45991;BME280;31721;41.740;-88.000;2023-07-20T01:55:30;98925.02;;;25.98;36.91
45991;BME280;31721;41.740;-88.000;2023-07-20T01:57:58;98929.93;;;25.94;37.01
45991;BME280;31721;41.740;-88.000;2023-07-20T02:00:26;98935.22;;;25.88;37.05
45991;BME280;31721;41.740;-88.000;2023-07-20T02:02:54;98939.61;;;25.80;37.13
45991;BME280;31721;41.740;-88.000;2023-07-20T02:05:22;98945.39;;;25.88;37.36
45991;BME280;31721;41.740;-88.000;2023-07-20T02:07:49;98941.40;;;25.73;37.79
45991;BME280;31721;41.740;-88.000;2023-07-20T02:10:17;98940.78;;;25.62;37.92
45991;BME280;31721;41.740;-88.000;2023-07-20T02:12:45;98943.58;;;25.62;38.16
45991;BME280;31721;41.740;-88.000;2023-07-20T02:15:12;98951.84;;;25.48;38.02
45991;BME280;31721;41.740;-88.000;2023-07-20T02:17:40;98958.25;;;25.55;38.01
45991;BME280;31721;41.740;-88.000;2023-07-20T02:20:08;98957.85;;;25.48;38.09
45991;BME280;31721;41.740;-88.000;2023-07-20T02:22:37;98950.76;;;25.32;38.41
45991;BME280;31721;41.740;-88.000;2023-07-20T02:25:06;98948.97;;;25.35;38.37
45991;BME280;31721;41.740;-88.000;2023-07-20T02:27:34;98950.25;;;25.28;38.44
45991;BME280;31721;41.740;-88.000;2023-07-20T02:30:03;98952.57;;;25.22;38.55
45991;BME280;31721;41.740;-88.000;2023-07-20T02:32:32;98951.59;;;25.16;38.65
45991;BME280;31721;41.740;-88.000;2023-07-20T02:35:00;98952.34;;;25.10;38.82
45991;BME280;31721;41.740;-88.000;2023-07-20T02:37:28;98952.35;;;25.10;39.05
45991;BME280;31721;41.740;-88.000;2023-07-20T02:39:56;98947.27;;;25.02;39.13
45991;BME280;31721;41.740;-88.000;2023-07-20T02:42:23;98946.93;;;24.90;39.18
45991;BME280;31721;41.740;-88.000;2023-07-20T02:44:51;98953.39;;;24.82;39.35
45991;BME280;31721;41.740;-88.000;2023-07-20T02:47:19;98949.96;;;24.77;39.37
45991;BME280;31721;41.740;-88.000;2023-07-20T02:49:47;98946.76;;;24.78;39.63
45991;BME280;31721;41.740;-88.000;2023-07-20T02:52:15;98943.86;;;24.66;39.90
45991;BME280;31721;41.740;-88.000;2023-07-20T02:54:43;98949.00;;;24.69;40.15
45991;BME280;31721;41.740;-88.000;2023-07-20T02:57:11;98952.04;;;24.64;40.09
45991;BME280;31721;41.740;-88.000;2023-07-20T02:59:39;98943.79;;;24.66;40.13
45991;BME280;31721;41.740;-88.000;2023-07-20T03:02:07;98935.08;;;24.60;40.51
45991;BME280;31721;41.740;-88.000;2023-07-20T03:04:35;98932.35;;;24.45;40.74
45991;BME280;31721;41.740;-88.000;2023-07-20T03:07:03;98928.62;;;24.33;40.74
45991;BME280;31721;41.740;-88.000;2023-07-20T03:09:31;98929.38;;;24.42;40.85
45991;BME280;31721;41.740;-88.000;2023-07-20T03:11:59;98931.65;;;24.25;40.75
45991;BME280;31721;41.740;-88.000;2023-07-20T03:14:27;98930.24;;;24.25;40.77
45991;BME280;31721;41.740;-88.000;2023-07-20T03:16:55;98928.73;;;24.09;40.71
45991;BME280;31721;41.740;-88.000;2023-07-20T03:19:23;98932.16;;;24.15;41.00
45991;BME280;31721;41.740;-88.000;2023-07-20T03:21:50;98933.52;;;24.08;41.15
45991;BME280;31721;41.740;-88.000;2023-07-20T03:24:18;98931.90;;;24.02;41.29
45991;BME280;31721;41.740;-88.000;2023-07-20T03:26:46;98928.82;;;23.95;41.35
45991;BME280;31721;41.740;-88.000;2023-07-20T03:29:14;98931.08;;;23.88;41.29
45991;BME280;31721;41.740;-88.000;2023-07-20T03:31:42;98930.66;;;23.85;41.84
45991;BME280;31721;41.740;-88.000;2023-07-20T03:34:09;98922.31;;;23.85;42.12
45991;BME280;31721;41.740;-88.000;2023-07-20T03:36:37;98921.28;;;23.80;42.14
45991;BME280;31721;41.740;-88.000;2023-07-20T03:39:05;98914.67;;;23.76;42.14
45991;BME280;31721;41.740;-88.000;2023-07-20T03:41:33;98905.53;;;23.79;42.46
45991;BME280;31721;41.740;-88.000;2023-07-20T03:44:00;98903.24;;;23.74;42.40
45991;BME280;31721;41.740;-88.000;2023-07-20T03:46:29;98905.53;;;23.70;42.72
45991;BME280;31721;41.740;-88.000;2023-07-20T03:48:56;98903.28;;;23.66;43.15
45991;BME280;31721;41.740;-88.000;2023-07-20T03:51:24;98900.07;;;23.54;43.16
45991;BME280;31721;41.740;-88.000;2023-07-20T03:53:52;98897.12;;;23.51;43.39
45991;BME280;31721;41.740;-88.000;2023-07-20T03:56:19;98896.83;;;23.48;43.32
45991;BME280;31721;41.740;-88.000;2023-07-20T03:58:47;98901.73;;;23.41;43.35
45991;BME280;31721;41.740;-88.000;2023-07-20T04:01:15;98901.55;;;23.37;43.51
45991;BME280;31721;41.740;-88.000;2023-07-20T04:03:43;98892.95;;;23.39;43.67
45991;BME280;31721;41.740;-88.000;2023-07-20T04:06:11;98884.30;;;23.28;43.73
45991;BME280;31721;41.740;-88.000;2023-07-20T04:08:38;98883.36;;;23.20;44.04
45991;BME280;31721;41.740;-88.000;2023-07-20T04:11:06;98881.04;;;23.26;44.42
45991;BME280;31721;41.740;-88.000;2023-07-20T04:13:34;98881.80;;;23.31;44.48
45991;BME280;31721;41.740;-88.000;2023-07-20T04:16:01;98883.34;;;23.21;44.68
45991;BME280;31721;41.740;-88.000;2023-07-20T04:18:29;98881.59;;;23.17;44.51
45991;BME280;31721;41.740;-88.000;2023-07-20T04:20:57;98883.80;;;23.20;44.50
45991;BME280;31721;41.740;-88.000;2023-07-20T04:23:24;98880.76;;;23.16;44.57
45991;BME280;31721;41.740;-88.000;2023-07-20T04:25:53;98865.60;;;23.09;44.67
45991;BME280;31721;41.740;-88.000;2023-07-20T04:28:20;98855.29;;;22.98;44.92
45991;BME280;31721;41.740;-88.000;2023-07-20T04:30:49;98853.41;;;23.06;45.33
45991;BME280;31721;41.740;-88.000;2023-07-20T04:33:17;98856.40;;;23.04;45.29
45991;BME280;31721;41.740;-88.000;2023-07-20T04:35:47;98855.11;;;23.00;45.12
45991;BME280;31721;41.740;-88.000;2023-07-20T04:38:15;98847.10;;;22.97;45.38
45991;BME280;31721;41.740;-88.000;2023-07-20T04:40:43;98846.65;;;22.95;45.50
45991;BME280;31721;41.740;-88.000;2023-07-20T04:43:11;98850.00;;;22.94;45.42
45991;BME280;31721;41.740;-88.000;2023-07-20T04:45:39;98852.25;;;22.90;45.53
45991;BME280;31721;41.740;-88.000;2023-07-20T04:48:10;98854.70;;;22.93;45.38
45991;BME280;31721;41.740;-88.000;2023-07-20T04:50:38;98855.61;;;22.92;45.89
45991;BME280;31721;41.740;-88.000;2023-07-20T04:53:06;98856.02;;;22.90;45.93
45991;BME280;31721;41.740;-88.000;2023-07-20T04:55:33;98856.99;;;22.90;46.06
45991;BME280;31721;41.740;-88.000;2023-07-20T04:58:02;98849.72;;;22.82;45.98
45991;BME280;31721;41.740;-88.000;2023-07-20T05:00:31;98851.32;;;22.87;46.27
45991;BME280;31721;41.740;-88.000;2023-07-20T05:02:59;98861.82;;;22.86;46.18
45991;BME280;31721;41.740;-88.000;2023-07-20T05:05:27;98862.62;;;22.82;46.37
45991;BME280;31721;41.740;-88.000;2023-07-20T05:07:55;98856.13;;;22.79;46.52
45991;BME280;31721;41.740;-88.000;2023-07-20T05:10:23;98861.11;;;22.85;46.60
45991;BME280;31721;41.740;-88.000;2023-07-20T05:12:51;98865.50;;;22.72;46.47
45991;BME280;31721;41.740;-88.000;2023-07-20T05:15:18;98866.62;;;22.68;46.63
45991;BME280;31721;41.740;-88.000;2023-07-20T05:17:46;98864.62;;;22.55;46.63
45991;BME280;31721;41.740;-88.000;2023-07-20T05:20:14;98863.83;;;22.56;46.70
45991;BME280;31721;41.740;-88.000;2023-07-20T05:22:43;98867.44;;;22.51;46.84
45991;BME280;31721;41.740;-88.000;2023-07-20T05:25:11;98877.76;;;22.51;46.86
45991;BME280;31721;41.740;-88.000;2023-07-20T05:27:39;98882.82;;;22.47;46.88
45991;BME280;31721;41.740;-88.000;2023-07-20T05:30:08;98885.60;;;22.40;46.98
45991;BME280;31721;41.740;-88.000;2023-07-20T05:32:36;98882.19;;;22.31;47.03
45991;BME280;31721;41.740;-88.000;2023-07-20T05:35:04;98880.40;;;22.28;47.37
45991;BME280;31721;41.740;-88.000;2023-07-20T05:37:32;98876.47;;;22.23;47.24
45991;BME280;31721;41.740;-88.000;2023-07-20T05:39:59;98879.53;;;22.25;47.42
45991;BME280;31721;41.740;-88.000;2023-07-20T05:42:27;98886.11;;;22.23;47.85
45991;BME280;31721;41.740;-88.000;2023-07-20T05:44:55;98884.01;;;22.22;48.19
45991;BME280;31721;41.740;-88.000;2023-07-20T05:47:23;98886.88;;;22.22;48.36
45991;BME280;31721;41.740;-88.000;2023-07-20T05:49:50;98886.74;;;22.21;48.35
45991;BME280;31721;41.740;-88.000;2023-07-20T05:52:18;98885.04;;;22.14;48.55
45991;BME280;31721;41.740;-88.000;2023-07-20T05:54:46;98884.79;;;22.12;48.60
45991;BME280;31721;41.740;-88.000;2023-07-20T05:57:14;98884.50;;;22.04;48.81
45991;BME280;31721;41.740;-88.000;2023-07-20T05:59:41;98878.62;;;22.12;48.77
45991;BME280;31721;41.740;-88.000;2023-07-20T06:02:09;98875.27;;;22.12;48.99
45991;BME280;31721;41.740;-88.000;2023-07-20T06:04:36;98874.17;;;22.20;48.88
45991;BME280;31721;41.740;-88.000;2023-07-20T06:07:04;98880.72;;;22.14;49.02
45991;BME280;31721;41.740;-88.000;2023-07-20T06:09:31;98886.05;;;22.14;49.00
45991;BME280;31721;41.740;-88.000;2023-07-20T06:11:59;98885.05;;;22.20;49.11
45991;BME280;31721;41.740;-88.000;2023-07-20T06:14:27;98883.44;;;22.18;49.20
45991;BME280;31721;41.740;-88.000;2023-07-20T06:16:55;98880.95;;;22.10;49.49
45991;BME280;31721;41.740;-88.000;2023-07-20T06:19:22;98884.37;;;22.15;49.48
45991;BME280;31721;41.740;-88.000;2023-07-20T06:21:49;98886.53;;;22.13;49.81
45991;BME280;31721;41.740;-88.000;2023-07-20T06:24:17;98886.94;;;22.04;49.91
45991;BME280;31721;41.740;-88.000;2023-07-20T06:26:44;98884.90;;;22.04;49.97
45991;BME280;31721;41.740;-88.000;2023-07-20T06:29:12;98875.83;;;22.01;50.05
45991;BME280;31721;41.740;-88.000;2023-07-20T06:31:40;98872.95;;;22.08;50.21
45991;BME280;31721;41.740;-88.000;2023-07-20T06:34:08;98868.83;;;22.06;50.16
45991;BME280;31721;41.740;-88.000;2023-07-20T06:36:36;98866.95;;;22.07;50.56
45991;BME280;31721;41.740;-88.000;2023-07-20T06:39:03;98867.25;;;22.07;50.75
45991;BME280;31721;41.740;-88.000;2023-07-20T06:41:31;98867.13;;;22.07;50.73
45991;BME280;31721;41.740;-88.000;2023-07-20T06:43:59;98864.80;;;22.03;50.76
45991;BME280;31721;41.740;-88.000;2023-07-20T06:46:27;98863.38;;;22.03;50.99
45991;BME280;31721;41.740;-88.000;2023-07-20T06:48:55;98856.28;;;22.02;51.05
45991;BME280;31721;41.740;-88.000;2023-07-20T06:51:22;98856.15;;;21.86;51.16
45991;BME280;31721;41.740;-88.000;2023-07-20T06:53:50;98861.49;;;21.99;50.99
45991;BME280;31721;41.740;-88.000;2023-07-20T06:56:18;98860.09;;;21.99;51.16
45991;BME280;31721;41.740;-88.000;2023-07-20T06:58:46;98861.62;;;21.93;51.06
45991;BME280;31721;41.740;-88.000;2023-07-20T07:01:13;98863.47;;;22.02;51.16
45991;BME280;31721;41.740;-88.000;2023-07-20T07:03:41;98868.63;;;21.93;51.00
45991;BME280;31721;41.740;-88.000;2023-07-20T07:06:08;98870.07;;;21.99;51.10
45991;BME280;31721;41.740;-88.000;2023-07-20T07:08:36;98863.65;;;21.94;51.21
45991;BME280;31721;41.740;-88.000;2023-07-20T07:11:04;98858.07;;;22.02;51.13
45991;BME280;31721;41.740;-88.000;2023-07-20T07:13:31;98862.81;;;22.03;51.20
45991;BME280;31721;41.740;-88.000;2023-07-20T07:15:59;98856.46;;;22.03;51.41
45991;BME280;31721;41.740;-88.000;2023-07-20T07:18:27;98854.94;;;21.97;51.50
45991;BME280;31721;41.740;-88.000;2023-07-20T07:20:55;98853.27;;;22.03;51.45
45991;BME280;31721;41.740;-88.000;2023-07-20T07:23:23;98849.63;;;22.00;51.34
45991;BME280;31721;41.740;-88.000;2023-07-20T07:25:50;98848.41;;;21.99;51.43
45991;BME280;31721;41.740;-88.000;2023-07-20T07:28:17;98840.60;;;21.85;51.48
45991;BME280;31721;41.740;-88.000;2023-07-20T07:30:45;98834.07;;;21.98;51.35
45991;BME280;31721;41.740;-88.000;2023-07-20T07:33:13;98831.34;;;21.96;51.33
45991;BME280;31721;41.740;-88.000;2023-07-20T07:35:40;98830.37;;;21.89;51.34
45991;BME280;31721;41.740;-88.000;2023-07-20T07:38:08;98828.75;;;21.89;51.26
45991;BME280;31721;41.740;-88.000;2023-07-20T07:40:36;98829.41;;;21.95;51.21
45991;BME280;31721;41.740;-88.000;2023-07-20T07:43:03;98827.34;;;21.93;51.18
45991;BME280;31721;41.740;-88.000;2023-07-20T07:45:34;98824.33;;;21.85;51.24
45991;BME280;31721;41.740;-88.000;2023-07-20T07:48:02;98830.17;;;21.91;51.24
45991;BME280;31721;41.740;-88.000;2023-07-20T07:50:30;98830.33;;;21.91;51.15
45991;BME280;31721;41.740;-88.000;2023-07-20T07:52:57;98832.05;;;21.86;51.36
45991;BME280;31721;41.740;-88.000;2023-07-20T07:55:25;98830.55;;;21.92;51.33
45991;BME280;31721;41.740;-88.000;2023-07-20T07:57:53;98827.52;;;21.89;51.36
45991;BME280;31721;41.740;-88.000;2023-07-20T08:00:20;98836.24;;;21.88;51.50
45991;BME280;31721;41.740;-88.000;2023-07-20T08:02:49;98834.87;;;21.86;51.74
45991;BME280;31721;41.740;-88.000;2023-07-20T08:05:17;98829.56;;;21.80;51.88
45991;BME280;31721;41.740;-88.000;2023-07-20T08:07:45;98828.77;;;21.86;51.97
45991;BME280;31721;41.740;-88.000;2023-07-20T08:10:13;98822.50;;;21.80;52.03
45991;BME280;31721;41.740;-88.000;2023-07-20T08:12:41;98814.06;;;21.88;52.23
45991;BME280;31721;41.740;-88.000;2023-07-20T08:15:11;98822.40;;;21.83;52.09
45991;BME280;31721;41.740;-88.000;2023-07-20T08:17:39;98825.01;;;21.83;52.10
45991;BME280;31721;41.740;-88.000;2023-07-20T08:20:08;98821.16;;;21.92;52.10
45991;BME280;31721;41.740;-88.000;2023-07-20T08:22:35;98819.43;;;21.85;52.15
45991;BME280;31721;41.740;-88.000;2023-07-20T08:25:03;98817.76;;;21.95;52.23
45991;BME280;31721;41.740;-88.000;2023-07-20T08:27:32;98811.35;;;21.87;52.57
45991;BME280;31721;41.740;-88.000;2023-07-20T08:29:59;98805.63;;;21.79;52.64
45991;BME280;31721;41.740;-88.000;2023-07-20T08:32:27;98800.88;;;21.82;52.67
45991;BME280;31721;41.740;-88.000;2023-07-20T08:34:55;98797.95;;;21.93;52.69
45991;BME280;31721;41.740;-88.000;2023-07-20T08:37:22;98798.57;;;21.86;52.41
45991;BME280;31721;41.740;-88.000;2023-07-20T08:39:50;98796.20;;;21.96;52.43
45991;BME280;31721;41.740;-88.000;2023-07-20T08:42:18;98801.58;;;21.97;52.50
45991;BME280;31721;41.740;-88.000;2023-07-20T08:44:48;98811.58;;;22.01;52.55
45991;BME280;31721;41.740;-88.000;2023-07-20T08:47:17;98809.03;;;22.02;52.36
45991;BME280;31721;41.740;-88.000;2023-07-20T08:49:48;98808.24;;;22.01;52.45
45991;BME280;31721;41.740;-88.000;2023-07-20T08:52:16;98813.67;;;22.01;52.38
45991;BME280;31721;41.740;-88.000;2023-07-20T08:54:44;98821.04;;;22.00;52.37
45991;BME280;31721;41.740;-88.000;2023-07-20T08:57:13;98825.15;;;22.07;52.24
45991;BME280;31721;41.740;-88.000;2023-07-20T08:59:42;98827.73;;;21.98;52.30
45991;BME280;31721;41.740;-88.000;2023-07-20T09:02:16;98829.12;;;21.98;52.43
45991;BME280;31721;41.740;-88.000;2023-07-20T09:04:45;98793.03;;;21.99;52.49
45991;BME280;31721;41.740;-88.000;2023-07-20T09:07:14;98760.94;;;21.92;52.81
45991;BME280;31721;41.740;-88.000;2023-07-20T09:09:43;98760.96;;;22.05;52.80
45991;BME280;31721;41.740;-88.000;2023-07-20T09:12:14;98763.89;;;22.00;53.17
45991;BME280;31721;41.740;-88.000;2023-07-20T09:14:43;98788.36;;;21.99;53.05
45991;BME280;31721;41.740;-88.000;2023-07-20T09:17:13;98788.56;;;21.99;53.32
45991;BME280;31721;41.740;-88.000;2023-07-20T09:19:46;98792.05;;;21.99;53.30
45991;BME280;31721;41.740;-88.000;2023-07-20T09:22:14;98787.50;;;22.13;53.36
45991;BME280;31721;41.740;-88.000;2023-07-20T09:24:42;98791.30;;;22.12;53.42
45991;BME280;31721;41.740;-88.000;2023-07-20T09:27:11;98790.04;;;22.06;53.32
45991;BME280;31721;41.740;-88.000;2023-07-20T09:29:48;98789.30;;;22.12;53.57
45991;BME280;31721;41.740;-88.000;2023-07-20T09:32:19;98779.06;;;22.11;53.27
45991;BME280;31721;41.740;-88.000;2023-07-20T09:34:47;98780.59;;;22.16;53.15
45991;BME280;31721;41.740;-88.000;2023-07-20T09:37:20;98785.35;;;22.27;53.01
45991;BME280;31721;41.740;-88.000;2023-07-20T09:39:48;98785.00;;;22.15;52.88
45991;BME280;31721;41.740;-88.000;2023-07-20T09:42:18;98786.24;;;22.33;52.34
45991;BME280;31721;41.740;-88.000;2023-07-20T09:44:47;98788.63;;;22.35;52.40
45991;BME280;31721;41.740;-88.000;2023-07-20T09:47:22;98788.21;;;22.25;52.46
45991;BME280;31721;41.740;-88.000;2023-07-20T09:49:50;98790.57;;;22.19;52.37
45991;BME280;31721;41.740;-88.000;2023-07-20T09:52:22;98799.40;;;22.19;52.26
45991;BME280;31721;41.740;-88.000;2023-07-20T09:54:49;98793.42;;;22.14;52.45
45991;BME280;31721;41.740;-88.000;2023-07-20T09:57:18;98802.01;;;22.17;52.67
45991;BME280;31721;41.740;-88.000;2023-07-20T09:59:47;98810.98;;;22.20;52.74
45991;BME280;31721;41.740;-88.000;2023-07-20T10:02:20;98818.68;;;22.14;52.71
45991;BME280;31721;41.740;-88.000;2023-07-20T10:04:49;98816.52;;;22.12;52.68
45991;BME280;31721;41.740;-88.000;2023-07-20T10:07:22;98808.05;;;22.20;52.88
45991;BME280;31721;41.740;-88.000;2023-07-20T10:09:51;98802.21;;;22.10;53.01
45991;BME280;31721;41.740;-88.000;2023-07-20T10:12:22;98797.24;;;22.26;53.21
45991;BME280;31721;41.740;-88.000;2023-07-20T10:14:57;98802.17;;;22.15;53.51
45991;BME280;31721;41.740;-88.000;2023-07-20T10:17:30;98819.14;;;22.58;53.32
45991;BME280;31721;41.740;-88.000;2023-07-20T10:20:01;98820.32;;;22.56;52.92
45991;BME280;31721;41.740;-88.000;2023-07-20T10:22:33;98805.07;;;22.55;53.01
45991;BME280;31721;41.740;-88.000;2023-07-20T10:25:02;98801.19;;;22.54;53.17
45991;BME280;31721;41.740;-88.000;2023-07-20T10:27:30;98804.06;;;22.52;53.45
45991;BME280;31721;41.740;-88.000;2023-07-20T10:29:59;98803.94;;;22.40;53.62
45991;BME280;31721;41.740;-88.000;2023-07-20T10:32:27;98786.28;;;22.31;53.48
45991;BME280;31721;41.740;-88.000;2023-07-20T10:34:56;98778.67;;;22.38;53.30
45991;BME280;31721;41.740;-88.000;2023-07-20T10:38:01;98780.64;;;22.31;53.60
45991;BME280;31721;41.740;-88.000;2023-07-20T10:40:31;98786.59;;;22.42;53.64
45991;BME280;31721;41.740;-88.000;2023-07-20T10:43:01;98789.29;;;22.45;54.03
45991;BME280;31721;41.740;-88.000;2023-07-20T10:45:49;98782.57;;;22.60;53.98
45991;BME280;31721;41.740;-88.000;2023-07-20T10:48:19;98780.25;;;22.57;54.04
45991;BME280;31721;41.740;-88.000;2023-07-20T10:51:10;98785.23;;;22.51;54.06
45991;BME280;31721;41.740;-88.000;2023-07-20T10:53:38;98784.93;;;22.43;54.10
45991;BME280;31721;41.740;-88.000;2023-07-20T10:56:08;98794.80;;;22.40;54.54
45991;BME280;31721;41.740;-88.000;2023-07-20T10:58:36;98793.91;;;22.65;54.52
45991;BME280;31721;41.740;-88.000;2023-07-20T11:01:04;98787.02;;;22.52;54.50
45991;BME280;31721;41.740;-88.000;2023-07-20T11:03:33;98778.61;;;22.46;54.61
45991;BME280;31721;41.740;-88.000;2023-07-20T11:06:31;98773.80;;;22.42;54.85
45991;BME280;31721;41.740;-88.000;2023-07-20T11:09:05;98772.07;;;22.58;55.11
45991;BME280;31721;41.740;-88.000;2023-07-20T11:11:35;98766.97;;;22.56;55.10
45991;BME280;31721;41.740;-88.000;2023-07-20T11:14:04;98766.34;;;22.64;55.31
45991;BME280;31721;41.740;-88.000;2023-07-20T11:16:34;98769.29;;;22.52;55.48
45991;BME280;31721;41.740;-88.000;2023-07-20T11:19:03;98769.74;;;22.75;55.53
45991;BME280;31721;41.740;-88.000;2023-07-20T11:21:36;98773.52;;;22.76;55.55
45991;BME280;31721;41.740;-88.000;2023-07-20T11:24:05;98772.52;;;22.80;55.77
45991;BME280;31721;41.740;-88.000;2023-07-20T11:26:41;98770.00;;;22.83;56.13
45991;BME280;31721;41.740;-88.000;2023-07-20T11:29:09;98766.81;;;22.81;56.17
45991;BME280;31721;41.740;-88.000;2023-07-20T11:31:37;98770.90;;;22.71;56.16
45991;BME280;31721;41.740;-88.000;2023-07-20T11:34:05;98772.54;;;22.78;56.53
45991;BME280;31721;41.740;-88.000;2023-07-20T11:36:34;98769.63;;;22.84;56.44
45991;BME280;31721;41.740;-88.000;2023-07-20T11:39:02;98766.27;;;22.81;56.80
45991;BME280;31721;41.740;-88.000;2023-07-20T11:41:31;98766.90;;;22.79;56.71
45991;BME280;31721;41.740;-88.000;2023-07-20T11:43:59;98773.56;;;22.86;56.95
45991;BME280;31721;41.740;-88.000;2023-07-20T11:46:28;98775.91;;;22.93;57.10
45991;BME280;31721;41.740;-88.000;2023-07-20T11:48:57;98777.64;;;22.89;57.12
45991;BME280;31721;41.740;-88.000;2023-07-20T11:51:27;98767.19;;;22.87;57.46
45991;BME280;31721;41.740;-88.000;2023-07-20T11:53:55;98762.77;;;22.93;57.71
45991;BME280;31721;41.740;-88.000;2023-07-20T11:56:25;98758.88;;;22.99;57.76
45991;BME280;31721;41.740;-88.000;2023-07-20T11:58:55;98756.06;;;22.99;57.86
45991;BME280;31721;41.740;-88.000;2023-07-20T12:01:24;98751.62;;;22.99;58.15
45991;BME280;31721;41.740;-88.000;2023-07-20T12:03:51;98745.81;;;22.94;58.19
45991;BME280;31721;41.740;-88.000;2023-07-20T12:06:23;98744.98;;;23.13;58.52
45991;BME280;31721;41.740;-88.000;2023-07-20T12:08:55;98743.47;;;23.29;58.54
45991;BME280;31721;41.740;-88.000;2023-07-20T12:11:39;98740.48;;;23.29;58.30
45991;BME280;31721;41.740;-88.000;2023-07-20T12:14:07;98739.06;;;23.31;58.66
45991;BME280;31721;41.740;-88.000;2023-07-20T12:16:37;98740.17;;;23.39;58.81
45991;BME280;31721;41.740;-88.000;2023-07-20T12:19:07;98740.11;;;23.42;58.57
45991;BME280;31721;41.740;-88.000;2023-07-20T12:21:36;98737.63;;;23.43;58.79
45991;BME280;31721;41.740;-88.000;2023-07-20T12:24:05;98737.50;;;23.57;58.91
45991;BME280;31721;41.740;-88.000;2023-07-20T12:26:34;98739.65;;;23.73;58.93
45991;BME280;31721;41.740;-88.000;2023-07-20T12:29:02;98736.72;;;23.94;58.86
45991;BME280;31721;41.740;-88.000;2023-07-20T12:31:30;98735.79;;;23.92;58.98
45991;BME280;31721;41.740;-88.000;2023-07-20T12:33:58;98730.59;;;23.92;58.63
45991;BME280;31721;41.740;-88.000;2023-07-20T12:36:26;98731.27;;;24.01;58.81
45991;BME280;31721;41.740;-88.000;2023-07-20T12:38:54;98726.68;;;23.87;58.94
45991;BME280;31721;41.740;-88.000;2023-07-20T12:41:22;98719.69;;;23.97;58.96
45991;BME280;31721;41.740;-88.000;2023-07-20T12:43:50;98714.91;;;24.03;58.99
45991;BME280;31721;41.740;-88.000;2023-07-20T12:46:18;98717.92;;;24.17;59.17
45991;BME280;31721;41.740;-88.000;2023-07-20T12:48:45;98712.71;;;24.22;58.73